sensor_id;sensor_type;location;lat;lon;timestamp;P1;durP1;ratioP1;P2;durP2;ratioP2
54947;SDS011;41113;41.882;12.530;2023-06-14T00:00:12;9.55;;;4.22;;
54947;SDS011;41113;41.882;12.530;2023-06-14T00:02:41;9.52;;;4.30;;
54947;SDS011;41113;41.882;12.530;2023-06-14T00:05:06;9.05;;;3.88;;
54947;SDS011;41113;41.882;12.530;2023-06-14T00:07:39;11.77;;;4.28;;
54947;SDS011;41113;41.882;12.530;2023-06-14T00:10:09;10.75;;;4.13;;
54947;SDS011;41113;41.882;12.530;2023-06-14T00:12:35;14.40;;;5.03;;
54947;SDS011;41113;41.882;12.530;2023-06-14T00:15:01;9.00;;;3.90;;
54947;SDS011;41113;41.882;12.530;2023-06-14T00:17:27;9.27;;;4.30;;
54947;SDS011;41113;41.882;12.530;2023-06-14T00:19:55;9.77;;;3.95;;
54947;SDS011;41113;41.882;12.530;2023-06-14T00:22:21;9.95;;;4.45;;
54947;SDS011;41113;41.882;12.530;2023-06-14T00:24:49;9.98;;;4.45;;
54947;SDS011;41113;41.882;12.530;2023-06-14T00:27:15;11.95;;;5.07;;
54947;SDS011;41113;41.882;12.530;2023-06-14T00:29:40;10.25;;;4.70;;
54947;SDS011;41113;41.882;12.530;2023-06-14T00:32:06;10.13;;;4.97;;
54947;SDS011;41113;41.882;12.530;2023-06-14T00:34:32;12.23;;;5.13;;
54947;SDS011;41113;41.882;12.530;2023-06-14T00:36:57;11.68;;;4.70;;
54947;SDS011;41113;41.882;12.530;2023-06-14T00:39:23;11.93;;;5.80;;
54947;SDS011;41113;41.882;12.530;2023-06-14T00:41:48;13.95;;;5.75;;
54947;SDS011;41113;41.882;12.530;2023-06-14T00:44:14;12.02;;;5.80;;
54947;SDS011;41113;41.882;12.530;2023-06-14T00:46:41;10.07;;;5.05;;
54947;SDS011;41113;41.882;12.530;2023-06-14T00:49:07;11.88;;;4.75;;
54947;SDS011;41113;41.882;12.530;2023-06-14T00:51:33;11.10;;;5.90;;
54947;SDS011;41113;41.882;12.530;2023-06-14T00:53:59;10.55;;;5.50;;
54947;SDS011;41113;41.882;12.530;2023-06-14T00:56:25;11.35;;;4.75;;
54947;SDS011;41113;41.882;12.530;2023-06-14T00:58:52;11.75;;;5.70;;
54947;SDS011;41113;41.882;12.530;2023-06-14T01:01:18;10.43;;;4.70;;
54947;SDS011;41113;41.882;12.530;2023-06-14T01:03:43;11.02;;;4.10;;
54947;SDS011;41113;41.882;12.530;2023-06-14T01:06:12;10.15;;;4.57;;
54947;SDS011;41113;41.882;12.530;2023-06-14T01:08:57;11.52;;;5.38;;
54947;SDS011;41113;41.882;12.530;2023-06-14T01:11:33;10.65;;;4.70;;
54947;SDS011;41113;41.882;12.530;2023-06-14T01:14:06;11.02;;;4.88;;
54947;SDS011;41113;41.882;12.530;2023-06-14T01:16:32;14.50;;;5.80;;
54947;SDS011;41113;41.882;12.530;2023-06-14T01:19:01;9.55;;;4.53;;
54947;SDS011;41113;41.882;12.530;2023-06-14T01:21:27;10.15;;;4.95;;
54947;SDS011;41113;41.882;12.530;2023-06-14T01:23:53;12.18;;;5.00;;
54947;SDS011;41113;41.882;12.530;2023-06-14T01:26:19;9.32;;;3.88;;
54947;SDS011;41113;41.882;12.530;2023-06-14T01:28:46;8.90;;;3.75;;
54947;SDS011;41113;41.882;12.530;2023-06-14T01:31:16;10.15;;;3.95;;
54947;SDS011;41113;41.882;12.530;2023-06-14T01:33:44;8.88;;;3.80;;
54947;SDS011;41113;41.882;12.530;2023-06-14T01:36:11;11.15;;;4.78;;
54947;SDS011;41113;41.882;12.530;2023-06-14T01:38:37;10.70;;;4.07;;
54947;SDS011;41113;41.882;12.530;2023-06-14T01:41:04;9.30;;;4.88;;
54947;SDS011;41113;41.882;12.530;2023-06-14T01:43:30;12.05;;;4.63;;
54947;SDS011;41113;41.882;12.530;2023-06-14T01:45:57;10.15;;;3.97;;
54947;SDS011;41113;41.882;12.530;2023-06-14T01:48:24;10.38;;;4.72;;
54947;SDS011;41113;41.882;12.530;2023-06-14T01:50:49;13.25;;;5.00;;
54947;SDS011;41113;41.882;12.530;2023-06-14T01:53:15;9.88;;;4.10;;
54947;SDS011;41113;41.882;12.530;2023-06-14T01:55:41;10.13;;;4.10;;
54947;SDS011;41113;41.882;12.530;2023-06-14T01:58:09;10.13;;;4.68;;
54947;SDS011;41113;41.882;12.530;2023-06-14T02:00:35;11.23;;;4.47;;
54947;SDS011;41113;41.882;12.530;2023-06-14T02:03:00;9.68;;;3.90;;
54947;SDS011;41113;41.882;12.530;2023-06-14T02:05:26;8.88;;;3.88;;
54947;SDS011;41113;41.882;12.530;2023-06-14T02:07:51;9.50;;;3.88;;
54947;SDS011;41113;41.882;12.530;2023-06-14T02:10:18;9.52;;;3.97;;
54947;SDS011;41113;41.882;12.530;2023-06-14T02:12:44;8.80;;;3.55;;
54947;SDS011;41113;41.882;12.530;2023-06-14T02:15:09;11.10;;;3.70;;
54947;SDS011;41113;41.882;12.530;2023-06-14T02:17:41;11.70;;;3.60;;
54947;SDS011;41113;41.882;12.530;2023-06-14T02:20:07;9.10;;;3.70;;
54947;SDS011;41113;41.882;12.530;2023-06-14T02:22:34;8.88;;;3.97;;
54947;SDS011;41113;41.882;12.530;2023-06-14T02:24:59;9.50;;;4.10;;
54947;SDS011;41113;41.882;12.530;2023-06-14T02:27:25;8.90;;;4.03;;
54947;SDS011;41113;41.882;12.530;2023-06-14T02:29:50;10.85;;;3.55;;
54947;SDS011;41113;41.882;12.530;2023-06-14T02:32:16;10.23;;;4.05;;
54947;SDS011;41113;41.882;12.530;2023-06-14T02:34:41;11.15;;;3.78;;
54947;SDS011;41113;41.882;12.530;2023-06-14T02:37:06;8.40;;;3.10;;
54947;SDS011;41113;41.882;12.530;2023-06-14T02:39:32;11.18;;;3.78;;
54947;SDS011;41113;41.882;12.530;2023-06-14T02:41:57;9.38;;;3.95;;
54947;SDS011;41113;41.882;12.530;2023-06-14T02:44:25;13.27;;;4.30;;
54947;SDS011;41113;41.882;12.530;2023-06-14T02:46:54;10.20;;;4.15;;
54947;SDS011;41113;41.882;12.530;2023-06-14T02:49:20;10.07;;;4.13;;
54947;SDS011;41113;41.882;12.530;2023-06-14T02:51:47;10.40;;;4.22;;
54947;SDS011;41113;41.882;12.530;2023-06-14T02:54:12;10.45;;;4.68;;
54947;SDS011;41113;41.882;12.530;2023-06-14T02:56:38;11.63;;;4.53;;
54947;SDS011;41113;41.882;12.530;2023-06-14T02:59:04;8.48;;;3.53;;
54947;SDS011;41113;41.882;12.530;2023-06-14T03:01:29;9.30;;;3.88;;
54947;SDS011;41113;41.882;12.530;2023-06-14T03:04:02;13.30;;;4.20;;
54947;SDS011;41113;41.882;12.530;2023-06-14T03:06:30;10.55;;;4.70;;
54947;SDS011;41113;41.882;12.530;2023-06-14T03:08:56;9.57;;;4.03;;
54947;SDS011;41113;41.882;12.530;2023-06-14T03:11:26;9.77;;;4.28;;
54947;SDS011;41113;41.882;12.530;2023-06-14T03:13:52;10.57;;;4.55;;
54947;SDS011;41113;41.882;12.530;2023-06-14T03:16:18;10.10;;;4.32;;
54947;SDS011;41113;41.882;12.530;2023-06-14T03:18:44;12.10;;;4.45;;
54947;SDS011;41113;41.882;12.530;2023-06-14T03:21:10;10.48;;;4.43;;
54947;SDS011;41113;41.882;12.530;2023-06-14T03:23:35;12.15;;;5.10;;
54947;SDS011;41113;41.882;12.530;2023-06-14T03:26:01;11.45;;;5.03;;
54947;SDS011;41113;41.882;12.530;2023-06-14T03:28:27;10.15;;;5.22;;
54947;SDS011;41113;41.882;12.530;2023-06-14T03:30:52;13.80;;;5.65;;
54947;SDS011;41113;41.882;12.530;2023-06-14T03:33:17;9.85;;;4.85;;
54947;SDS011;41113;41.882;12.530;2023-06-14T03:35:43;11.93;;;6.13;;
54947;SDS011;41113;41.882;12.530;2023-06-14T03:38:08;11.30;;;6.50;;
54947;SDS011;41113;41.882;12.530;2023-06-14T03:40:34;15.63;;;7.68;;
54947;SDS011;41113;41.882;12.530;2023-06-14T03:42:59;12.43;;;6.40;;
54947;SDS011;41113;41.882;12.530;2023-06-14T03:45:25;12.02;;;6.72;;
54947;SDS011;41113;41.882;12.530;2023-06-14T03:47:50;12.60;;;6.18;;
54947;SDS011;41113;41.882;12.530;2023-06-14T03:50:17;15.32;;;6.35;;
54947;SDS011;41113;41.882;12.530;2023-06-14T03:52:43;13.63;;;6.28;;
54947;SDS011;41113;41.882;12.530;2023-06-14T03:55:09;14.68;;;6.72;;
54947;SDS011;41113;41.882;12.530;2023-06-14T03:57:35;12.25;;;6.60;;
54947;SDS011;41113;41.882;12.530;2023-06-14T04:00:00;13.25;;;6.72;;
54947;SDS011;41113;41.882;12.530;2023-06-14T04:02:26;13.95;;;7.65;;
54947;SDS011;41113;41.882;12.530;2023-06-14T04:04:54;17.17;;;7.95;;
54947;SDS011;41113;41.882;12.530;2023-06-14T04:07:20;15.65;;;9.13;;
54947;SDS011;41113;41.882;12.530;2023-06-14T04:09:45;14.93;;;8.07;;
54947;SDS011;41113;41.882;12.530;2023-06-14T04:12:11;14.43;;;6.85;;
54947;SDS011;41113;41.882;12.530;2023-06-14T04:14:37;11.00;;;5.35;;
54947;SDS011;41113;41.882;12.530;2023-06-14T04:17:03;10.35;;;5.30;;
54947;SDS011;41113;41.882;12.530;2023-06-14T04:19:28;12.75;;;5.85;;
54947;SDS011;41113;41.882;12.530;2023-06-14T04:21:54;11.82;;;5.18;;
54947;SDS011;41113;41.882;12.530;2023-06-14T04:24:19;12.68;;;5.78;;
54947;SDS011;41113;41.882;12.530;2023-06-14T04:26:45;14.10;;;5.53;;
54947;SDS011;41113;41.882;12.530;2023-06-14T04:29:13;12.43;;;5.57;;
54947;SDS011;41113;41.882;12.530;2023-06-14T04:31:41;12.47;;;4.93;;
54947;SDS011;41113;41.882;12.530;2023-06-14T04:34:07;13.40;;;5.40;;
54947;SDS011;41113;41.882;12.530;2023-06-14T04:36:33;10.88;;;5.28;;
54947;SDS011;41113;41.882;12.530;2023-06-14T04:39:06;11.82;;;4.50;;
54947;SDS011;41113;41.882;12.530;2023-06-14T04:41:32;9.88;;;4.13;;
54947;SDS011;41113;41.882;12.530;2023-06-14T04:43:58;19.50;;;4.35;;
54947;SDS011;41113;41.882;12.530;2023-06-14T04:46:26;12.10;;;4.35;;
54947;SDS011;41113;41.882;12.530;2023-06-14T04:48:55;12.60;;;4.38;;
54947;SDS011;41113;41.882;12.530;2023-06-14T04:51:21;9.85;;;3.65;;
54947;SDS011;41113;41.882;12.530;2023-06-14T04:53:54;10.60;;;3.80;;
54947;SDS011;41113;41.882;12.530;2023-06-14T04:56:24;10.98;;;3.90;;
54947;SDS011;41113;41.882;12.530;2023-06-14T04:58:50;13.43;;;4.63;;
54947;SDS011;41113;41.882;12.530;2023-06-14T05:01:17;15.23;;;4.45;;
54947;SDS011;41113;41.882;12.530;2023-06-14T05:03:43;9.25;;;3.92;;
54947;SDS011;41113;41.882;12.530;2023-06-14T05:06:10;11.70;;;4.25;;
54947;SDS011;41113;41.882;12.530;2023-06-14T05:08:37;13.55;;;4.88;;
54947;SDS011;41113;41.882;12.530;2023-06-14T05:11:02;9.77;;;4.20;;
54947;SDS011;41113;41.882;12.530;2023-06-14T05:13:28;10.82;;;4.15;;
54947;SDS011;41113;41.882;12.530;2023-06-14T05:15:53;11.73;;;4.03;;
54947;SDS011;41113;41.882;12.530;2023-06-14T05:18:19;9.27;;;4.03;;
54947;SDS011;41113;41.882;12.530;2023-06-14T05:20:45;9.00;;;4.15;;
54947;SDS011;41113;41.882;12.530;2023-06-14T05:23:14;9.93;;;3.72;;
54947;SDS011;41113;41.882;12.530;2023-06-14T05:25:40;14.20;;;4.13;;
54947;SDS011;41113;41.882;12.530;2023-06-14T05:28:09;10.00;;;3.63;;
54947;SDS011;41113;41.882;12.530;2023-06-14T05:30:35;10.38;;;3.38;;
54947;SDS011;41113;41.882;12.530;2023-06-14T05:33:01;10.25;;;3.50;;
54947;SDS011;41113;41.882;12.530;2023-06-14T05:35:26;10.50;;;3.80;;
54947;SDS011;41113;41.882;12.530;2023-06-14T05:37:53;8.63;;;3.05;;
54947;SDS011;41113;41.882;12.530;2023-06-14T05:40:18;10.95;;;3.95;;
54947;SDS011;41113;41.882;12.530;2023-06-14T05:42:44;9.48;;;3.83;;
54947;SDS011;41113;41.882;12.530;2023-06-14T05:45:09;14.05;;;3.80;;
54947;SDS011;41113;41.882;12.530;2023-06-14T05:47:35;7.93;;;3.20;;
54947;SDS011;41113;41.882;12.530;2023-06-14T05:50:00;9.07;;;3.30;;
54947;SDS011;41113;41.882;12.530;2023-06-14T05:52:26;9.30;;;3.72;;
54947;SDS011;41113;41.882;12.530;2023-06-14T05:54:51;11.63;;;3.83;;
54947;SDS011;41113;41.882;12.530;2023-06-14T05:57:17;10.38;;;3.40;;
54947;SDS011;41113;41.882;12.530;2023-06-14T05:59:42;12.52;;;3.28;;
54947;SDS011;41113;41.882;12.530;2023-06-14T06:02:07;8.50;;;2.95;;
54947;SDS011;41113;41.882;12.530;2023-06-14T06:04:33;14.25;;;3.42;;
54947;SDS011;41113;41.882;12.530;2023-06-14T06:06:58;9.30;;;3.45;;
54947;SDS011;41113;41.882;12.530;2023-06-14T06:09:25;9.13;;;3.42;;
54947;SDS011;41113;41.882;12.530;2023-06-14T06:11:51;8.48;;;3.13;;
54947;SDS011;41113;41.882;12.530;2023-06-14T06:14:16;9.85;;;3.67;;
54947;SDS011;41113;41.882;12.530;2023-06-14T06:16:43;13.05;;;3.85;;
54947;SDS011;41113;41.882;12.530;2023-06-14T06:19:08;10.65;;;3.40;;
54947;SDS011;41113;41.882;12.530;2023-06-14T06:21:35;9.30;;;3.83;;
54947;SDS011;41113;41.882;12.530;2023-06-14T06:24:00;9.35;;;3.15;;
54947;SDS011;41113;41.882;12.530;2023-06-14T06:26:28;9.40;;;3.80;;
54947;SDS011;41113;41.882;12.530;2023-06-14T06:28:53;10.43;;;3.83;;
54947;SDS011;41113;41.882;12.530;2023-06-14T06:31:19;10.98;;;3.65;;
54947;SDS011;41113;41.882;12.530;2023-06-14T06:33:45;14.45;;;3.90;;
54947;SDS011;41113;41.882;12.530;2023-06-14T06:36:10;14.82;;;4.68;;
54947;SDS011;41113;41.882;12.530;2023-06-14T06:38:35;10.68;;;3.67;;
54947;SDS011;41113;41.882;12.530;2023-06-14T06:41:01;9.25;;;4.15;;
54947;SDS011;41113;41.882;12.530;2023-06-14T06:43:26;11.85;;;3.60;;
54947;SDS011;41113;41.882;12.530;2023-06-14T06:45:52;12.35;;;3.63;;
54947;SDS011;41113;41.882;12.530;2023-06-14T06:48:17;8.50;;;3.10;;
54947;SDS011;41113;41.882;12.530;2023-06-14T06:50:42;10.35;;;3.30;;
54947;SDS011;41113;41.882;12.530;2023-06-14T06:53:07;15.88;;;7.93;;
54947;SDS011;41113;41.882;12.530;2023-06-14T06:55:33;13.48;;;4.47;;
54947;SDS011;41113;41.882;12.530;2023-06-14T06:57:59;16.50;;;4.53;;
54947;SDS011;41113;41.882;12.530;2023-06-14T07:00:29;11.80;;;4.18;;
54947;SDS011;41113;41.882;12.530;2023-06-14T07:02:55;10.15;;;3.25;;
54947;SDS011;41113;41.882;12.530;2023-06-14T07:05:22;11.02;;;3.47;;
54947;SDS011;41113;41.882;12.530;2023-06-14T07:07:47;11.02;;;3.30;;
54947;SDS011;41113;41.882;12.530;2023-06-14T07:10:13;8.85;;;3.30;;
54947;SDS011;41113;41.882;12.530;2023-06-14T07:12:38;9.55;;;3.33;;
54947;SDS011;41113;41.882;12.530;2023-06-14T07:15:05;7.55;;;3.30;;
54947;SDS011;41113;41.882;12.530;2023-06-14T07:17:32;8.00;;;3.13;;
54947;SDS011;41113;41.882;12.530;2023-06-14T07:19:58;9.32;;;3.42;;
54947;SDS011;41113;41.882;12.530;2023-06-14T07:22:25;9.10;;;3.10;;
54947;SDS011;41113;41.882;12.530;2023-06-14T07:24:51;8.07;;;3.10;;
54947;SDS011;41113;41.882;12.530;2023-06-14T07:27:16;9.20;;;3.60;;
54947;SDS011;41113;41.882;12.530;2023-06-14T07:29:42;8.65;;;3.40;;
54947;SDS011;41113;41.882;12.530;2023-06-14T07:32:07;9.63;;;3.13;;
54947;SDS011;41113;41.882;12.530;2023-06-14T07:34:32;8.45;;;3.20;;
54947;SDS011;41113;41.882;12.530;2023-06-14T07:36:58;8.82;;;3.35;;
54947;SDS011;41113;41.882;12.530;2023-06-14T07:39:25;8.93;;;2.95;;
54947;SDS011;41113;41.882;12.530;2023-06-14T07:41:50;9.98;;;3.00;;
54947;SDS011;41113;41.882;12.530;2023-06-14T07:44:16;11.20;;;3.58;;
54947;SDS011;41113;41.882;12.530;2023-06-14T07:46:42;8.65;;;3.03;;
54947;SDS011;41113;41.882;12.530;2023-06-14T07:49:08;9.13;;;2.97;;
54947;SDS011;41113;41.882;12.530;2023-06-14T07:51:33;9.75;;;3.30;;
54947;SDS011;41113;41.882;12.530;2023-06-14T07:53:59;8.18;;;2.95;;
54947;SDS011;41113;41.882;12.530;2023-06-14T07:56:28;8.02;;;2.78;;
54947;SDS011;41113;41.882;12.530;2023-06-14T07:58:53;9.57;;;2.65;;
54947;SDS011;41113;41.882;12.530;2023-06-14T08:01:19;8.13;;;2.70;;
54947;SDS011;41113;41.882;12.530;2023-06-14T08:03:45;9.98;;;2.90;;
54947;SDS011;41113;41.882;12.530;2023-06-14T08:06:10;9.82;;;2.72;;
54947;SDS011;41113;41.882;12.530;2023-06-14T08:08:36;7.72;;;2.72;;
54947;SDS011;41113;41.882;12.530;2023-06-14T08:11:01;7.95;;;3.05;;
54947;SDS011;41113;41.882;12.530;2023-06-14T08:13:27;8.75;;;3.30;;
54947;SDS011;41113;41.882;12.530;2023-06-14T08:15:52;8.57;;;3.65;;
54947;SDS011;41113;41.882;12.530;2023-06-14T08:18:17;8.63;;;2.90;;
54947;SDS011;41113;41.882;12.530;2023-06-14T08:20:43;7.45;;;2.80;;
54947;SDS011;41113;41.882;12.530;2023-06-14T08:23:08;10.43;;;2.83;;
54947;SDS011;41113;41.882;12.530;2023-06-14T08:25:35;8.02;;;2.92;;
54947;SDS011;41113;41.882;12.530;2023-06-14T08:28:00;14.45;;;3.88;;
54947;SDS011;41113;41.882;12.530;2023-06-14T08:30:26;17.15;;;3.42;;
54947;SDS011;41113;41.882;12.530;2023-06-14T08:32:51;8.57;;;2.88;;
54947;SDS011;41113;41.882;12.530;2023-06-14T08:35:17;15.98;;;4.45;;
54947;SDS011;41113;41.882;12.530;2023-06-14T08:37:43;9.30;;;3.30;;
54947;SDS011;41113;41.882;12.530;2023-06-14T08:40:13;12.82;;;3.30;;
54947;SDS011;41113;41.882;12.530;2023-06-14T08:42:50;9.25;;;3.38;;
54947;SDS011;41113;41.882;12.530;2023-06-14T08:45:17;9.75;;;3.28;;
54947;SDS011;41113;41.882;12.530;2023-06-14T08:47:43;9.40;;;3.30;;
54947;SDS011;41113;41.882;12.530;2023-06-14T08:50:10;11.50;;;3.30;;
54947;SDS011;41113;41.882;12.530;2023-06-14T08:52:37;10.10;;;3.72;;
54947;SDS011;41113;41.882;12.530;2023-06-14T08:55:06;10.52;;;3.53;;
54947;SDS011;41113;41.882;12.530;2023-06-14T08:57:33;11.93;;;4.03;;
54947;SDS011;41113;41.882;12.530;2023-06-14T09:00:02;14.10;;;4.28;;
54947;SDS011;41113;41.882;12.530;2023-06-14T09:02:38;12.32;;;4.30;;
54947;SDS011;41113;41.882;12.530;2023-06-14T09:05:08;11.90;;;4.53;;
54947;SDS011;41113;41.882;12.530;2023-06-14T09:07:38;10.07;;;3.80;;
54947;SDS011;41113;41.882;12.530;2023-06-14T09:12:37;9.57;;;3.88;;
54947;SDS011;41113;41.882;12.530;2023-06-14T09:15:03;11.98;;;3.30;;
54947;SDS011;41113;41.882;12.530;2023-06-14T09:17:37;9.73;;;3.27;;
54947;SDS011;41113;41.882;12.530;2023-06-14T09:20:03;7.72;;;3.20;;
54947;SDS011;41113;41.882;12.530;2023-06-14T09:22:34;9.98;;;3.35;;
54947;SDS011;41113;41.882;12.530;2023-06-14T09:25:01;7.25;;;2.95;;
54947;SDS011;41113;41.882;12.530;2023-06-14T09:27:26;10.27;;;3.67;;
54947;SDS011;41113;41.882;12.530;2023-06-14T09:29:53;9.68;;;3.22;;
54947;SDS011;41113;41.882;12.530;2023-06-14T09:32:18;7.78;;;3.20;;
54947;SDS011;41113;41.882;12.530;2023-06-14T09:34:45;7.90;;;3.03;;
54947;SDS011;41113;41.882;12.530;2023-06-14T09:37:11;8.00;;;3.47;;
54947;SDS011;41113;41.882;12.530;2023-06-14T09:39:48;8.63;;;3.38;;
54947;SDS011;41113;41.882;12.530;2023-06-14T09:42:18;9.45;;;3.45;;
54947;SDS011;41113;41.882;12.530;2023-06-14T09:44:46;9.35;;;3.25;;
54947;SDS011;41113;41.882;12.530;2023-06-14T09:47:13;9.50;;;3.40;;
54947;SDS011;41113;41.882;12.530;2023-06-14T09:49:40;8.57;;;3.60;;
54947;SDS011;41113;41.882;12.530;2023-06-14T09:52:06;9.70;;;3.80;;
54947;SDS011;41113;41.882;12.530;2023-06-14T09:54:42;8.00;;;2.97;;
54947;SDS011;41113;41.882;12.530;2023-06-14T09:57:09;10.80;;;3.80;;
54947;SDS011;41113;41.882;12.530;2023-06-14T09:59:36;8.40;;;2.90;;
54947;SDS011;41113;41.882;12.530;2023-06-14T10:02:09;8.25;;;3.50;;
54947;SDS011;41113;41.882;12.530;2023-06-14T10:04:58;9.82;;;3.83;;
54947;SDS011;41113;41.882;12.530;2023-06-14T10:07:30;11.65;;;5.43;;
54947;SDS011;41113;41.882;12.530;2023-06-14T10:10:02;10.93;;;4.80;;
54947;SDS011;41113;41.882;12.530;2023-06-14T10:12:28;9.52;;;4.43;;
54947;SDS011;41113;41.882;12.530;2023-06-14T10:14:53;9.10;;;4.10;;
54947;SDS011;41113;41.882;12.530;2023-06-14T10:17:23;9.20;;;4.00;;
54947;SDS011;41113;41.882;12.530;2023-06-14T10:20:02;9.80;;;3.70;;
54947;SDS011;41113;41.882;12.530;2023-06-14T10:22:37;9.63;;;3.97;;
54947;SDS011;41113;41.882;12.530;2023-06-14T10:25:10;8.48;;;3.50;;
54947;SDS011;41113;41.882;12.530;2023-06-14T10:27:38;9.02;;;3.33;;
54947;SDS011;41113;41.882;12.530;2023-06-14T10:30:04;14.77;;;5.97;;
54947;SDS011;41113;41.882;12.530;2023-06-14T10:32:31;13.57;;;6.05;;
54947;SDS011;41113;41.882;12.530;2023-06-14T10:34:58;11.13;;;5.00;;
54947;SDS011;41113;41.882;12.530;2023-06-14T10:37:27;11.63;;;5.00;;
54947;SDS011;41113;41.882;12.530;2023-06-14T10:39:52;15.38;;;6.78;;
54947;SDS011;41113;41.882;12.530;2023-06-14T10:42:18;17.77;;;7.30;;
54947;SDS011;41113;41.882;12.530;2023-06-14T10:49:50;13.15;;;6.00;;
54947;SDS011;41113;41.882;12.530;2023-06-14T10:52:24;16.00;;;6.47;;
54947;SDS011;41113;41.882;12.530;2023-06-14T10:55:04;14.05;;;5.45;;
54947;SDS011;41113;41.882;12.530;2023-06-14T10:57:42;14.07;;;6.05;;
54947;SDS011;41113;41.882;12.530;2023-06-14T11:00:10;14.63;;;6.05;;
54947;SDS011;41113;41.882;12.530;2023-06-14T11:05:25;13.23;;;5.32;;
54947;SDS011;41113;41.882;12.530;2023-06-14T11:10:58;10.50;;;4.95;;
54947;SDS011;41113;41.882;12.530;2023-06-14T11:13:25;11.68;;;4.68;;
54947;SDS011;41113;41.882;12.530;2023-06-14T11:15:51;10.10;;;4.47;;
54947;SDS011;41113;41.882;12.530;2023-06-14T11:18:19;10.85;;;4.88;;
54947;SDS011;41113;41.882;12.530;2023-06-14T11:20:46;10.85;;;4.75;;
54947;SDS011;41113;41.882;12.530;2023-06-14T11:23:12;10.95;;;4.22;;
54947;SDS011;41113;41.882;12.530;2023-06-14T11:25:37;9.20;;;3.55;;
54947;SDS011;41113;41.882;12.530;2023-06-14T11:28:02;9.52;;;3.80;;
54947;SDS011;41113;41.882;12.530;2023-06-14T11:30:28;9.80;;;3.83;;
54947;SDS011;41113;41.882;12.530;2023-06-14T11:32:54;9.13;;;3.75;;
54947;SDS011;41113;41.882;12.530;2023-06-14T11:35:23;9.48;;;3.63;;
54947;SDS011;41113;41.882;12.530;2023-06-14T11:37:53;9.13;;;3.60;;
54947;SDS011;41113;41.882;12.530;2023-06-14T11:40:24;9.52;;;3.60;;
54947;SDS011;41113;41.882;12.530;2023-06-14T11:42:54;11.82;;;4.35;;
54947;SDS011;41113;41.882;12.530;2023-06-14T11:45:24;10.13;;;4.13;;
54947;SDS011;41113;41.882;12.530;2023-06-14T11:47:50;13.43;;;5.22;;
54947;SDS011;41113;41.882;12.530;2023-06-14T11:50:15;11.95;;;4.68;;
54947;SDS011;41113;41.882;12.530;2023-06-14T11:52:40;14.05;;;5.72;;
54947;SDS011;41113;41.882;12.530;2023-06-14T11:55:06;13.02;;;4.80;;
54947;SDS011;41113;41.882;12.530;2023-06-14T11:57:35;11.80;;;5.13;;
54947;SDS011;41113;41.882;12.530;2023-06-14T12:00:04;12.88;;;4.95;;
54947;SDS011;41113;41.882;12.530;2023-06-14T12:02:37;12.70;;;4.80;;
54947;SDS011;41113;41.882;12.530;2023-06-14T12:05:04;11.32;;;5.28;;
54947;SDS011;41113;41.882;12.530;2023-06-14T12:07:33;12.07;;;4.50;;
54947;SDS011;41113;41.882;12.530;2023-06-14T12:12:24;10.65;;;4.00;;
54947;SDS011;41113;41.882;12.530;2023-06-14T12:14:50;11.82;;;4.88;;
54947;SDS011;41113;41.882;12.530;2023-06-14T12:17:16;9.27;;;3.63;;
54947;SDS011;41113;41.882;12.530;2023-06-14T12:19:43;11.13;;;3.95;;
54947;SDS011;41113;41.882;12.530;2023-06-14T12:22:09;9.98;;;3.50;;
54947;SDS011;41113;41.882;12.530;2023-06-14T12:24:35;8.77;;;3.40;;
54947;SDS011;41113;41.882;12.530;2023-06-14T12:27:00;9.00;;;3.30;;
54947;SDS011;41113;41.882;12.530;2023-06-14T12:29:29;8.60;;;3.40;;
54947;SDS011;41113;41.882;12.530;2023-06-14T12:31:56;8.85;;;3.28;;
54947;SDS011;41113;41.882;12.530;2023-06-14T12:34:25;6.53;;;2.80;;
54947;SDS011;41113;41.882;12.530;2023-06-14T12:36:52;9.32;;;3.42;;
54947;SDS011;41113;41.882;12.530;2023-06-14T12:39:21;9.52;;;2.97;;
54947;SDS011;41113;41.882;12.530;2023-06-14T12:41:47;8.23;;;2.90;;
54947;SDS011;41113;41.882;12.530;2023-06-14T12:44:13;8.27;;;3.03;;
54947;SDS011;41113;41.882;12.530;2023-06-14T12:46:39;8.55;;;2.90;;
54947;SDS011;41113;41.882;12.530;2023-06-14T12:49:07;7.95;;;3.08;;
54947;SDS011;41113;41.882;12.530;2023-06-14T12:51:33;10.10;;;3.00;;
54947;SDS011;41113;41.882;12.530;2023-06-14T12:54:00;10.15;;;3.50;;
54947;SDS011;41113;41.882;12.530;2023-06-14T12:56:25;9.55;;;3.40;;
54947;SDS011;41113;41.882;12.530;2023-06-14T12:58:51;8.57;;;3.38;;
54947;SDS011;41113;41.882;12.530;2023-06-14T13:01:17;10.05;;;3.35;;
54947;SDS011;41113;41.882;12.530;2023-06-14T13:03:43;9.75;;;3.70;;
54947;SDS011;41113;41.882;12.530;2023-06-14T13:06:09;10.75;;;4.03;;
54947;SDS011;41113;41.882;12.530;2023-06-14T13:08:34;9.38;;;3.85;;
54947;SDS011;41113;41.882;12.530;2023-06-14T13:11:00;9.88;;;3.38;;
54947;SDS011;41113;41.882;12.530;2023-06-14T13:13:25;13.48;;;3.78;;
54947;SDS011;41113;41.882;12.530;2023-06-14T13:15:51;9.98;;;3.85;;
54947;SDS011;41113;41.882;12.530;2023-06-14T13:18:16;10.77;;;4.60;;
54947;SDS011;41113;41.882;12.530;2023-06-14T13:20:42;9.65;;;4.05;;
54947;SDS011;41113;41.882;12.530;2023-06-14T13:23:08;13.38;;;4.25;;
54947;SDS011;41113;41.882;12.530;2023-06-14T13:25:34;10.60;;;4.63;;
54947;SDS011;41113;41.882;12.530;2023-06-14T13:28:03;8.98;;;4.38;;
54947;SDS011;41113;41.882;12.530;2023-06-14T13:30:30;12.70;;;4.60;;
54947;SDS011;41113;41.882;12.530;2023-06-14T13:32:56;10.80;;;4.43;;
54947;SDS011;41113;41.882;12.530;2023-06-14T13:35:23;10.80;;;3.83;;
54947;SDS011;41113;41.882;12.530;2023-06-14T13:37:48;9.73;;;3.92;;
54947;SDS011;41113;41.882;12.530;2023-06-14T13:40:14;9.02;;;4.05;;
54947;SDS011;41113;41.882;12.530;2023-06-14T13:42:39;10.48;;;4.25;;
54947;SDS011;41113;41.882;12.530;2023-06-14T13:45:05;10.43;;;4.50;;
54947;SDS011;41113;41.882;12.530;2023-06-14T13:47:31;11.30;;;4.38;;
54947;SDS011;41113;41.882;12.530;2023-06-14T13:49:57;14.27;;;4.75;;
54947;SDS011;41113;41.882;12.530;2023-06-14T13:52:23;15.27;;;5.30;;
54947;SDS011;41113;41.882;12.530;2023-06-14T13:54:48;13.60;;;4.70;;
54947;SDS011;41113;41.882;12.530;2023-06-14T13:57:14;11.30;;;4.95;;
54947;SDS011;41113;41.882;12.530;2023-06-14T13:59:40;12.05;;;5.05;;
54947;SDS011;41113;41.882;12.530;2023-06-14T14:02:06;11.27;;;4.82;;
54947;SDS011;41113;41.882;12.530;2023-06-14T14:04:32;13.52;;;5.13;;
54947;SDS011;41113;41.882;12.530;2023-06-14T14:06:59;10.98;;;4.65;;
54947;SDS011;41113;41.882;12.530;2023-06-14T14:09:25;12.73;;;4.28;;
54947;SDS011;41113;41.882;12.530;2023-06-14T14:11:50;10.35;;;4.10;;
54947;SDS011;41113;41.882;12.530;2023-06-14T14:14:16;12.80;;;5.28;;
54947;SDS011;41113;41.882;12.530;2023-06-14T14:16:42;10.48;;;4.50;;
54947;SDS011;41113;41.882;12.530;2023-06-14T14:19:07;13.43;;;4.50;;
54947;SDS011;41113;41.882;12.530;2023-06-14T14:21:32;11.95;;;4.88;;
54947;SDS011;41113;41.882;12.530;2023-06-14T14:23:58;11.13;;;4.50;;
54947;SDS011;41113;41.882;12.530;2023-06-14T14:26:23;12.88;;;4.85;;
54947;SDS011;41113;41.882;12.530;2023-06-14T14:28:49;9.57;;;3.78;;
54947;SDS011;41113;41.882;12.530;2023-06-14T14:31:15;9.20;;;3.65;;
54947;SDS011;41113;41.882;12.530;2023-06-14T14:33:41;9.85;;;4.25;;
54947;SDS011;41113;41.882;12.530;2023-06-14T14:36:07;15.57;;;5.35;;
54947;SDS011;41113;41.882;12.530;2023-06-14T14:38:33;11.00;;;4.07;;